Time;durP1;ratioP1;P1;durP2;ratioP2;P2;SDS_P1;SDS_P2;PMS_P1;PMS_P2;Temp;Humidity;BMP_temperature;BMP_pressure;BME280_temperature;BME280_humidity;BME280_pressure;Samples;Min_cycle;Max_cycle;Signal;HPM_P1;HPM_P2
2022/04/08 00:02:03;;;;;;;8.23;4.35;;;;;;;14.47;54.33;98052.09;4457314;32;34841;-65
2022/04/08 00:04:32;;;;;;;10.52;6.00;;;;;;;14.36;54.31;98053.81;4460853;32;33461;-67
2022/04/08 00:07:00;;;;;;;13.82;7.32;;;;;;;14.14;54.90;98063.34;4456074;32;34542;-67
2022/04/08 00:09:27;;;;;;;13.07;6.82;;;;;;;14.24;54.72;98070.28;4455453;32;33483;-64
2022/04/08 00:11:55;;;;;;;11.30;5.97;;;;;;;14.32;54.23;98068.56;4454096;32;33905;-67
2022/04/08 00:14:23;;;;;;;14.45;7.68;;;;;;;14.26;54.61;98067.69;4442672;32;33084;-67
2022/04/08 00:16:50;;;;;;;12.77;7.43;;;;;;;13.06;58.33;98075.78;4455244;32;34122;-66
2022/04/08 00:19:19;;;;;;;16.70;8.50;;;;;;;13.55;56.82;98072.63;4457226;32;33955;-65
2022/04/08 00:21:48;;;;;;;11.05;7.20;;;;;;;14.02;54.91;98073.69;4454006;32;33819;-66
2022/04/08 00:24:17;;;;;;;12.30;6.68;;;;;;;13.20;57.74;98062.00;4444236;32;35015;-65
2022/04/08 00:26:46;;;;;;;14.20;6.45;;;;;;;12.93;59.14;98061.81;4454788;32;33901;-66
2022/04/08 00:29:14;;;;;;;13.73;7.22;;;;;;;11.54;64.06;98069.88;4453579;32;33905;-65
2022/04/08 00:31:41;;;;;;;11.50;6.18;;;;;;;12.23;62.05;98056.87;4440976;32;34398;-67
2022/04/08 00:34:09;;;;;;;11.95;6.60;;;;;;;11.88;63.31;98065.13;4453710;32;33098;-67
2022/04/08 00:36:36;;;;;;;10.82;6.12;;;;;;;11.48;64.92;98069.81;4456968;32;33724;-67
2022/04/08 00:39:04;;;;;;;9.68;5.25;;;;;;;12.05;63.26;98082.63;4459155;32;33695;-66
2022/04/08 00:41:31;;;;;;;13.95;6.55;;;;;;;13.01;59.62;98090.47;4459381;32;34530;-66
2022/04/08 00:43:59;;;;;;;10.65;5.93;;;;;;;12.52;60.60;98074.47;4454190;32;33218;-66
2022/04/08 00:46:26;;;;;;;11.57;5.62;;;;;;;11.63;64.45;98073.44;4454583;32;33994;-67
2022/04/08 00:48:54;;;;;;;10.27;5.07;;;;;;;11.23;66.42;98072.91;4455105;32;33869;-67
2022/04/08 00:51:22;;;;;;;9.48;5.40;;;;;;;12.38;62.04;98075.22;4452791;32;34224;-66
2022/04/08 00:53:49;;;;;;;11.68;5.37;;;;;;;12.97;59.22;98078.31;4453109;32;34382;-66
2022/04/08 00:56:18;;;;;;;11.23;6.03;;;;;;;13.09;58.81;98088.78;4455390;32;34600;-67
2022/04/08 00:58:46;;;;;;;8.90;5.00;;;;;;;13.89;56.15;98086.69;4453527;32;33635;-66
2022/04/08 01:01:13;;;;;;;10.20;5.15;;;;;;;13.72;56.39;98085.72;4454216;32;34515;-67
2022/04/08 01:03:41;;;;;;;9.82;4.82;;;;;;;13.01;58.31;98080.06;4455324;32;33851;-65
2022/04/08 01:06:08;;;;;;;9.38;4.82;;;;;;;12.82;58.87;98078.19;4453694;32;33649;-65
2022/04/08 01:08:36;;;;;;;8.02;5.15;;;;;;;12.05;62.33;98077.44;4453134;32;34465;-66
2022/04/08 01:11:04;;;;;;;8.77;4.22;;;;;;;12.46;60.60;98092.56;4437492;32;33636;-64
2022/04/08 01:13:31;;;;;;;8.57;4.50;;;;;;;11.83;63.06;98097.91;4453469;32;33931;-67
2022/04/08 01:15:59;;;;;;;9.25;4.47;;;;;;;11.50;64.28;98093.16;4450446;32;33679;-66
2022/04/08 01:18:27;;;;;;;9.43;5.12;;;;;;;12.17;62.23;98093.16;4455322;32;34728;-65
2022/04/08 01:20:54;;;;;;;7.45;3.97;;;;;;;11.97;62.79;98096.37;4455374;32;33875;-67
2022/04/08 01:23:23;;;;;;;8.32;4.62;;;;;;;11.52;64.08;98102.69;4454187;32;34157;-66
2022/04/08 01:25:51;;;;;;;8.68;4.95;;;;;;;10.79;66.95;98112.81;4440147;32;34203;-66
2022/04/08 01:28:18;;;;;;;9.77;5.10;;;;;;;10.56;68.09;98115.88;4452635;32;33648;-67
2022/04/08 01:30:45;;;;;;;10.68;4.82;;;;;;;10.19;69.56;98119.50;4455099;32;34087;-66
2022/04/08 01:33:13;;;;;;;12.35;5.10;;;;;;;11.37;65.34;98128.41;4454112;32;34062;-67
2022/04/08 01:35:41;;;;;;;12.77;5.03;;;;;;;11.00;66.39;98122.66;4426943;32;33148;-67
2022/04/08 01:38:09;;;;;;;9.77;5.00;;;;;;;10.48;68.58;98132.13;4452219;32;34900;-67
2022/04/08 01:40:36;;;;;;;9.10;5.10;;;;;;;10.38;68.90;98150.06;4455002;32;34095;-66
2022/04/08 01:43:04;;;;;;;8.93;4.93;;;;;;;10.19;69.70;98163.47;4454390;32;34297;-67
2022/04/08 01:45:31;;;;;;;9.60;4.22;;;;;;;10.72;68.04;98163.66;4454559;32;34472;-66
2022/04/08 01:47:59;;;;;;;8.75;4.60;;;;;;;12.05;62.72;98171.72;4453439;32;32883;-65
2022/04/08 01:50:27;;;;;;;7.47;3.67;;;;;;;12.69;60.24;98175.91;4451312;32;33939;-66
2022/04/08 01:52:54;;;;;;;8.02;4.25;;;;;;;12.79;59.41;98189.03;4451283;32;33390;-67
2022/04/08 01:55:22;;;;;;;11.02;4.32;;;;;;;11.15;64.82;98179.06;4439388;32;34637;-67
2022/04/08 01:57:49;;;;;;;6.82;3.72;;;;;;;10.41;68.34;98176.03;4449326;32;32717;-66
2022/04/08 02:00:17;;;;;;;7.93;4.15;;;;;;;10.62;67.75;98182.44;4452403;32;33178;-66
2022/04/08 02:02:45;;;;;;;6.72;3.55;;;;;;;10.53;68.21;98182.28;4439894;32;32787;-66
2022/04/08 02:05:13;;;;;;;8.77;4.43;;;;;;;11.07;66.10;98184.12;4452624;32;34611;-66
2022/04/08 02:07:41;;;;;;;10.93;4.07;;;;;;;11.41;64.47;98177.75;4452789;32;34514;-66
2022/04/08 02:10:10;;;;;;;7.00;3.58;;;;;;;12.46;60.92;98199.03;4440707;32;33528;-65
2022/04/08 02:12:37;;;;;;;8.57;3.95;;;;;;;12.70;59.75;98204.53;4444280;32;33428;-66
2022/04/08 02:15:05;;;;;;;7.80;3.70;;;;;;;10.55;67.54;98227.22;4438011;32;34359;-64
2022/04/08 02:17:33;;;;;;;6.47;3.97;;;;;;;10.41;68.66;98229.50;4453562;32;34419;-66
2022/04/08 02:20:01;;;;;;;6.55;4.10;;;;;;;11.31;65.53;98237.19;4453721;32;33696;-66
2022/04/08 02:22:29;;;;;;;6.00;3.87;;;;;;;10.43;68.44;98228.69;4454348;32;34191;-66
2022/04/08 02:24:57;;;;;;;7.53;4.22;;;;;;;10.56;68.04;98223.75;4456314;32;33803;-65
2022/04/08 02:27:26;;;;;;;10.07;4.20;;;;;;;10.50;68.23;98223.66;4454616;32;33933;-66
2022/04/08 02:29:56;;;;;;;8.68;4.20;;;;;;;10.43;68.50;98202.81;4445873;32;32884;-66
2022/04/08 02:32:23;;;;;;;9.93;4.90;;;;;;;10.36;68.99;98185.41;4440462;32;31560;-66
2022/04/08 02:34:52;;;;;;;7.12;4.72;;;;;;;10.16;70.23;98190.16;4460010;32;33836;-66
2022/04/08 02:37:19;;;;;;;8.40;4.55;;;;;;;10.41;69.18;98213.97;4451966;32;32533;-64
2022/04/08 02:39:47;;;;;;;7.72;4.18;;;;;;;10.47;69.18;98208.03;4455532;32;33741;-65
2022/04/08 02:42:14;;;;;;;9.27;3.95;;;;;;;10.38;69.25;98219.97;4453002;32;33259;-67
2022/04/08 02:44:42;;;;;;;7.15;4.30;;;;;;;10.59;68.44;98229.88;4454642;32;33929;-67
2022/04/08 02:47:09;;;;;;;6.40;4.30;;;;;;;10.80;67.65;98232.00;4459618;32;34041;-66
2022/04/08 02:49:37;;;;;;;6.80;4.07;;;;;;;10.39;69.00;98239.84;4452267;32;33766;-65
2022/04/08 02:52:05;;;;;;;7.47;4.37;;;;;;;10.28;69.22;98243.88;4439824;32;31426;-66
2022/04/08 02:54:32;;;;;;;6.93;4.35;;;;;;;10.25;69.72;98254.16;4454785;32;34584;-65
2022/04/08 02:57:00;;;;;;;11.63;5.22;;;;;;;10.13;70.37;98264.25;4456496;32;34005;-67
2022/04/08 02:59:27;;;;;;;7.62;4.62;;;;;;;10.01;70.80;98273.50;4454484;32;34568;-65
2022/04/08 03:01:55;;;;;;;7.28;4.35;;;;;;;10.29;69.91;98281.84;4454490;32;33282;-65
2022/04/08 03:04:25;;;;;;;7.20;4.35;;;;;;;10.61;68.61;98297.22;4455614;32;33954;-66
2022/04/08 03:06:54;;;;;;;7.62;4.07;;;;;;;10.60;68.91;98303.25;4454192;32;34515;-67
2022/04/08 03:09:22;;;;;;;6.70;4.15;;;;;;;10.55;69.31;98291.94;4441068;32;32287;-65
2022/04/08 03:11:49;;;;;;;8.07;4.72;;;;;;;10.71;68.55;98304.34;4454747;32;33468;-67
2022/04/08 03:14:17;;;;;;;9.73;5.20;;;;;;;10.78;68.69;98303.63;4455959;32;34072;-66
2022/04/08 03:16:45;;;;;;;10.77;5.32;;;;;;;10.72;68.72;98306.09;4440579;32;33693;-65
2022/04/08 03:19:13;;;;;;;9.98;4.87;;;;;;;11.14;67.62;98297.38;4442212;32;32135;-65
2022/04/08 03:21:40;;;;;;;8.93;4.70;;;;;;;10.89;68.32;98300.34;4455220;32;34354;-66
2022/04/08 03:24:10;;;;;;;7.05;4.53;;;;;;;12.09;64.10;98307.59;4454506;32;34552;-67
2022/04/08 03:26:38;;;;;;;8.73;4.40;;;;;;;11.66;65.25;98309.50;4455431;32;33965;-66
2022/04/08 03:29:06;;;;;;;9.32;5.18;;;;;;;10.46;69.51;98321.06;4441160;32;33722;-66
2022/04/08 03:31:33;;;;;;;14.13;4.72;;;;;;;10.71;69.03;98325.06;4441054;32;34224;-66
2022/04/08 03:34:03;;;;;;;8.60;4.20;;;;;;;11.41;66.89;98319.47;4457956;32;33853;-66
2022/04/08 03:36:31;;;;;;;8.75;4.15;;;;;;;11.36;66.20;98323.72;4454173;32;34757;-66
2022/04/08 03:38:58;;;;;;;9.20;3.53;;;;;;;11.69;65.17;98327.72;4439610;32;32806;-67
2022/04/08 03:41:26;;;;;;;7.28;2.72;;;;;;;11.83;64.13;98341.78;4454746;32;34203;-65
2022/04/08 03:43:53;;;;;;;5.18;2.50;;;;;;;11.49;65.35;98349.00;4440908;32;34557;-66
2022/04/08 03:46:21;;;;;;;4.18;1.92;;;;;;;11.45;65.41;98349.78;4456117;32;34059;-66
2022/04/08 03:48:48;;;;;;;2.58;1.40;;;;;;;11.79;64.92;98351.22;4454513;32;33781;-66
2022/04/08 03:51:16;;;;;;;4.20;1.00;;;;;;;12.06;64.12;98364.69;4454401;32;33110;-67
2022/04/08 03:53:43;;;;;;;1.67;0.68;;;;;;;12.17;64.21;98368.31;4454123;32;32610;-67
2022/04/08 03:56:12;;;;;;;2.00;0.68;;;;;;;12.07;65.07;98369.00;4454278;32;33899;-65
2022/04/08 03:58:40;;;;;;;1.77;0.75;;;;;;;12.20;64.88;98381.31;4456841;32;34577;-66
2022/04/08 04:01:08;;;;;;;1.00;0.50;;;;;;;12.34;64.75;98386.72;4453670;32;33833;-66
2022/04/08 04:03:35;;;;;;;1.90;0.57;;;;;;;12.28;65.14;98371.06;4453966;32;33743;-65
2022/04/08 04:06:03;;;;;;;1.42;0.45;;;;;;;12.33;65.24;98365.09;4456810;32;33588;-66
2022/04/08 04:08:30;;;;;;;2.00;0.40;;;;;;;12.38;64.91;98375.53;4454811;32;33926;-65
2022/04/08 04:10:58;;;;;;;2.95;0.50;;;;;;;12.43;65.02;98371.28;4459746;32;34182;-66
2022/04/08 04:13:25;;;;;;;1.15;0.40;;;;;;;12.20;65.76;98363.16;4453888;32;33430;-66
2022/04/08 04:15:53;;;;;;;2.83;0.43;;;;;;;12.45;65.48;98377.37;4456940;32;33826;-66
2022/04/08 04:18:21;;;;;;;0.93;0.35;;;;;;;12.34;65.99;98382.44;4453876;32;33862;-67
2022/04/08 04:20:48;;;;;;;1.23;0.30;;;;;;;12.20;65.09;98378.72;4441862;32;33503;-66
2022/04/08 04:23:16;;;;;;;3.12;0.50;;;;;;;12.23;64.61;98381.38;4442828;32;32254;-66
2022/04/08 04:25:44;;;;;;;0.98;0.30;;;;;;;12.28;64.00;98382.31;4459868;32;34684;-65
2022/04/08 04:28:13;;;;;;;1.30;0.52;;;;;;;12.27;65.21;98395.28;4440597;32;33788;-66
2022/04/08 04:30:40;;;;;;;1.17;0.50;;;;;;;12.16;63.98;98387.31;4453842;32;33172;-66
2022/04/08 04:33:08;;;;;;;2.55;0.40;;;;;;;11.76;64.09;98376.25;4456200;32;33656;-68
2022/04/08 04:35:35;;;;;;;0.52;0.20;;;;;;;12.02;61.50;98394.03;4455242;32;33685;-65
2022/04/08 04:38:03;;;;;;;1.48;0.37;;;;;;;12.16;62.50;98397.69;4442418;32;33650;-66
2022/04/08 04:40:31;;;;;;;1.45;0.40;;;;;;;12.24;61.25;98405.63;4443193;32;33420;-67
2022/04/08 04:43:00;;;;;;;0.98;0.35;;;;;;;12.09;60.46;98404.53;4454425;32;33893;-67
2022/04/08 04:45:27;;;;;;;1.40;0.60;;;;;;;12.39;58.89;98406.72;4461272;32;34764;-67
2022/04/08 04:47:55;;;;;;;1.15;0.30;;;;;;;12.24;58.66;98410.81;4453348;32;32357;-65
2022/04/08 04:50:22;;;;;;;1.48;0.35;;;;;;;12.33;57.65;98413.56;4456183;32;34491;-67
2022/04/08 04:52:55;;;;;;;1.35;0.30;;;;;;;12.54;55.24;98416.47;4446116;32;33388;-67
2022/04/08 04:55:23;;;;;;;1.77;0.40;;;;;;;12.37;53.93;98424.00;4458411;32;33793;-66
2022/04/08 04:57:50;;;;;;;1.30;0.25;;;;;;;12.00;53.81;98438.97;4446826;32;34117;-65
2022/04/08 05:00:19;;;;;;;2.47;0.20;;;;;;;12.38;51.69;98443.94;4454246;32;33534;-65
2022/04/08 05:02:47;;;;;;;5.85;0.85;;;;;;;11.91;52.57;98456.97;4439783;32;32288;-65
2022/04/08 05:05:15;;;;;;;2.28;0.45;;;;;;;12.20;50.77;98446.22;4456808;32;33817;-65
2022/04/08 05:07:43;;;;;;;1.35;0.65;;;;;;;12.11;50.54;98452.16;4443522;32;31172;-65
2022/04/08 05:10:10;;;;;;;2.25;0.77;;;;;;;12.08;50.75;98453.81;4440903;32;32798;-67
2022/04/08 05:12:38;;;;;;;4.03;0.50;;;;;;;12.39;50.48;98453.47;4443456;32;32168;-65
2022/04/08 05:15:07;;;;;;;3.72;0.50;;;;;;;11.89;49.78;98456.06;4460091;32;33863;-66
2022/04/08 05:17:35;;;;;;;1.80;0.52;;;;;;;12.29;50.92;98448.13;4456171;32;34562;-65
2022/04/08 05:20:04;;;;;;;1.55;0.35;;;;;;;12.06;51.42;98463.31;4458859;32;33384;-67
2022/04/08 05:22:32;;;;;;;2.58;0.75;;;;;;;11.91;51.11;98462.16;4455747;32;34655;-66
2022/04/08 05:25:00;;;;;;;2.55;0.43;;;;;;;11.98;50.09;98461.44;4454760;32;34828;-67
2022/04/08 05:27:35;;;;;;;2.12;0.52;;;;;;;11.99;49.35;98473.59;4453825;32;34676;-67
2022/04/08 05:30:07;;;;;;;4.68;0.65;;;;;;;12.15;47.44;98473.84;4463898;32;33377;-67
2022/04/08 05:32:34;;;;;;;3.75;0.60;;;;;;;12.45;47.39;98472.59;4458410;32;34382;-65
2022/04/08 05:35:03;;;;;;;3.28;0.60;;;;;;;12.39;46.24;98479.44;4455710;32;33929;-66
2022/04/08 05:37:30;;;;;;;1.50;0.52;;;;;;;12.54;45.80;98488.34;4453217;32;33707;-66
2022/04/08 05:39:58;;;;;;;4.20;0.60;;;;;;;12.29;44.87;98492.25;4429022;32;34051;-67
2022/04/08 05:42:26;;;;;;;4.68;0.60;;;;;;;12.38;45.27;98498.47;4459223;32;33309;-65
2022/04/08 05:44:53;;;;;;;3.70;0.57;;;;;;;12.48;44.68;98496.03;4453570;32;33769;-66
2022/04/08 05:47:21;;;;;;;3.17;0.70;;;;;;;12.30;45.96;98500.03;4456034;32;33831;-65
2022/04/08 05:49:48;;;;;;;1.25;0.30;;;;;;;12.13;44.88;98491.09;4455579;32;33597;-64
2022/04/08 05:52:16;;;;;;;1.75;0.40;;;;;;;12.15;45.62;98505.00;4453244;32;33873;-65
2022/04/08 05:54:43;;;;;;;3.67;0.73;;;;;;;12.17;44.66;98506.75;4454510;32;33968;-67
2022/04/08 05:57:11;;;;;;;5.32;0.55;;;;;;;12.27;45.27;98523.37;4455642;32;34618;-67
2022/04/08 05:59:40;;;;;;;2.25;0.40;;;;;;;12.24;45.60;98520.72;4463024;32;33695;-67
2022/04/08 06:02:10;;;;;;;4.57;0.95;;;;;;;12.29;44.38;98528.59;4454625;32;34002;-67
2022/04/08 06:04:38;;;;;;;5.93;0.93;;;;;;;12.42;44.27;98522.78;4459574;32;33710;-67
2022/04/08 06:07:05;;;;;;;3.10;0.50;;;;;;;12.53;44.19;98546.31;4455110;32;33963;-66
2022/04/08 06:09:33;;;;;;;6.70;0.82;;;;;;;12.11;44.14;98557.69;4454457;32;33846;-66
2022/04/08 06:12:01;;;;;;;2.47;0.88;;;;;;;12.32;43.95;98576.28;4454287;32;34466;-67
2022/04/08 06:14:30;;;;;;;3.87;0.70;;;;;;;12.30;42.55;98588.31;4453254;32;34686;-66
2022/04/08 06:16:58;;;;;;;5.30;0.95;;;;;;;12.43;41.78;98588.56;4457809;32;34441;-66
2022/04/08 06:19:25;;;;;;;2.90;0.70;;;;;;;12.14;42.65;98592.34;4454174;32;32126;-67
2022/04/08 06:21:54;;;;;;;5.25;1.00;;;;;;;12.27;42.82;98588.28;4453574;32;34404;-68
2022/04/08 06:24:22;;;;;;;4.10;1.05;;;;;;;12.34;42.59;98594.44;4439113;32;34714;-67
2022/04/08 06:26:50;;;;;;;4.75;1.00;;;;;;;12.04;42.78;98594.78;4453050;32;34279;-68
2022/04/08 06:29:18;;;;;;;3.33;1.20;;;;;;;12.45;42.97;98590.31;4460780;32;33538;-66
2022/04/08 06:31:45;;;;;;;7.18;0.85;;;;;;;12.15;43.00;98594.12;4458646;32;34669;-68
2022/04/08 06:34:13;;;;;;;5.65;0.80;;;;;;;12.75;42.60;98592.59;4442911;32;33955;-67
2022/04/08 06:36:41;;;;;;;3.00;0.77;;;;;;;12.56;44.48;98582.75;4440053;32;33495;-67
2022/04/08 06:39:08;;;;;;;7.55;1.50;;;;;;;12.55;42.09;98592.22;4455877;32;34155;-67
2022/04/08 06:41:36;;;;;;;4.93;0.62;;;;;;;13.03;42.70;98582.63;4454572;32;33710;-66
2022/04/08 06:44:04;;;;;;;7.28;0.88;;;;;;;12.67;42.37;98583.81;4429087;32;33357;-65
2022/04/08 06:46:31;;;;;;;2.67;0.60;;;;;;;12.71;43.78;98585.59;4445468;32;34328;-66
2022/04/08 06:49:02;;;;;;;4.00;0.85;;;;;;;12.76;41.46;98570.06;4458655;32;34054;-66
2022/04/08 06:51:30;;;;;;;3.00;0.70;;;;;;;13.16;41.87;98584.56;4454404;32;34450;-68
2022/04/08 06:53:58;;;;;;;3.80;0.70;;;;;;;13.06;41.29;98585.28;4456767;32;34647;-66
2022/04/08 06:56:26;;;;;;;3.87;0.80;;;;;;;13.29;40.73;98574.31;4455440;32;33975;-66
2022/04/08 06:58:53;;;;;;;3.35;0.45;;;;;;;12.60;41.17;98589.72;4455367;32;34189;-68
2022/04/08 07:01:22;;;;;;;4.70;1.08;;;;;;;12.60;41.81;98589.72;4445113;32;32067;-65
2022/04/08 07:03:50;;;;;;;5.25;0.95;;;;;;;12.77;41.72;98590.87;4457765;32;34613;-67
2022/04/08 07:06:17;;;;;;;3.50;1.05;;;;;;;12.84;41.30;98596.19;4455680;32;33701;-66
2022/04/08 07:08:45;;;;;;;2.42;0.60;;;;;;;12.90;41.07;98568.59;4440674;32;34266;-67
2022/04/08 07:11:13;;;;;;;1.92;0.60;;;;;;;13.43;41.10;98595.38;4455861;32;33904;-68
2022/04/08 07:13:43;;;;;;;3.62;0.77;;;;;;;13.47;39.87;98574.63;4452916;32;33646;-67
2022/04/08 07:16:11;;;;;;;4.68;0.70;;;;;;;13.31;40.38;98583.94;4453733;32;33261;-65
2022/04/08 07:18:39;;;;;;;6.18;1.08;;;;;;;13.03;40.50;98598.22;4456081;32;33330;-67
2022/04/08 07:21:06;;;;;;;4.47;0.75;;;;;;;13.51;40.48;98596.34;4466895;32;33875;-66
2022/04/08 07:23:35;;;;;;;1.87;0.40;;;;;;;13.68;40.35;98607.00;4454172;32;34012;-67
2022/04/08 07:26:03;;;;;;;4.97;0.82;;;;;;;13.48;39.63;98602.41;4455279;32;33951;-67
2022/04/08 07:28:32;;;;;;;4.65;1.00;;;;;;;13.41;40.08;98579.75;4453951;32;34467;-67
2022/04/08 07:31:00;;;;;;;4.47;0.77;;;;;;;13.57;40.15;98586.88;4454347;32;33956;-66
2022/04/08 07:33:27;;;;;;;3.35;0.82;;;;;;;13.60;40.64;98585.19;4459651;32;34657;-67
2022/04/08 07:35:54;;;;;;;4.43;1.00;;;;;;;13.39;40.34;98599.66;4441102;32;32539;-65
2022/04/08 07:38:23;;;;;;;6.80;1.00;;;;;;;13.30;39.42;98607.31;4455071;32;32213;-66
2022/04/08 07:40:50;;;;;;;4.50;0.60;;;;;;;13.25;38.12;98598.53;4441524;32;34654;-64
2022/04/08 07:43:19;;;;;;;2.72;0.52;;;;;;;13.48;38.77;98612.81;4441120;32;32183;-66
2022/04/08 07:45:47;;;;;;;3.25;0.62;;;;;;;13.70;39.41;98618.28;4455272;32;33901;-65
2022/04/08 07:48:14;;;;;;;4.95;0.65;;;;;;;13.61;37.96;98607.75;4453343;32;33367;-66
2022/04/08 07:50:42;;;;;;;3.00;1.55;;;;;;;13.72;37.82;98629.59;4453531;32;33865;-65
2022/04/08 07:53:09;;;;;;;1.48;0.35;;;;;;;13.88;36.77;98589.88;4457886;32;34492;-67
2022/04/08 07:55:37;;;;;;;3.83;0.30;;;;;;;13.74;35.13;98604.47;4452201;32;34451;-67
2022/04/08 07:58:05;;;;;;;2.22;0.43;;;;;;;13.87;34.77;98595.06;4454358;32;33472;-65
2022/04/08 08:00:34;;;;;;;1.98;0.40;;;;;;;13.71;33.20;98592.31;4440527;32;33814;-68
2022/04/08 08:03:03;;;;;;;2.22;0.50;;;;;;;13.74;34.37;98578.44;4454552;32;34712;-66
2022/04/08 08:05:32;;;;;;;1.77;0.47;;;;;;;13.52;34.17;98588.56;4440263;32;34651;-67
2022/04/08 08:08:01;;;;;;;3.65;0.50;;;;;;;13.37;34.50;98598.78;4453441;32;33393;-67
2022/04/08 08:10:35;;;;;;;3.72;0.57;;;;;;;13.60;34.98;98600.78;4458869;32;32525;-66
2022/04/08 08:13:03;;;;;;;1.95;0.50;;;;;;;13.68;34.08;98594.84;4452307;32;34052;-65
2022/04/08 08:15:32;;;;;;;2.03;0.30;;;;;;;14.35;33.53;98594.75;4442861;32;32361;-66
2022/04/08 08:18:00;;;;;;;3.83;0.50;;;;;;;14.33;33.44;98612.09;4453438;32;34055;-65
2022/04/08 08:20:28;;;;;;;3.62;0.73;;;;;;;14.27;33.44;98622.44;4458099;32;32648;-67
2022/04/08 08:22:55;;;;;;;6.65;0.70;;;;;;;13.84;34.62;98627.16;4453403;32;34803;-65
2022/04/08 08:25:23;;;;;;;3.55;0.73;;;;;;;14.12;34.05;98653.53;4454793;32;34473;-66
2022/04/08 08:27:56;;;;;;;5.50;0.60;;;;;;;14.09;35.28;98648.28;4455821;32;33371;-66
2022/04/08 08:30:23;;;;;;;6.22;0.50;;;;;;;14.63;34.67;98644.56;4456436;32;34623;-66
2022/04/08 08:32:51;;;;;;;1.55;0.50;;;;;;;14.69;33.61;98654.19;4455910;32;33557;-64
2022/04/08 08:35:19;;;;;;;4.43;0.73;;;;;;;14.12;34.43;98669.16;4440601;32;32282;-65
2022/04/08 08:37:49;;;;;;;0.95;0.30;;;;;;;13.88;35.97;98691.41;4452258;32;33220;-65
2022/04/08 08:40:17;;;;;;;2.95;0.52;;;;;;;14.03;34.73;98669.03;4455034;32;32783;-65
2022/04/08 08:42:45;;;;;;;1.85;0.70;;;;;;;13.66;35.77;98694.56;4454514;32;33572;-67
2022/04/08 08:45:14;;;;;;;3.25;0.43;;;;;;;13.76;35.16;98678.22;4438197;32;33681;-66
2022/04/08 08:47:48;;;;;;;2.47;0.47;;;;;;;13.54;35.23;98690.94;4463076;32;34114;-64
2022/04/08 08:50:17;;;;;;;2.60;0.65;;;;;;;13.43;35.98;98692.50;4455088;32;34006;-66
2022/04/08 08:52:49;;;;;;;3.25;0.40;;;;;;;13.60;35.60;98704.87;4455201;32;33993;-65
2022/04/08 08:55:18;;;;;;;2.03;0.62;;;;;;;13.51;35.18;98701.28;4457194;32;34535;-67
2022/04/08 08:57:47;;;;;;;3.50;0.68;;;;;;;13.73;35.32;98706.81;4455003;32;33429;-68
2022/04/08 09:00:18;;;;;;;2.58;0.50;;;;;;;13.67;35.00;98704.13;4459189;32;33153;-67
2022/04/08 09:02:50;;;;;;;3.60;0.40;;;;;;;13.50;33.95;98707.34;4449791;32;34757;-66
2022/04/08 09:05:23;;;;;;;2.50;0.52;;;;;;;13.59;33.93;98710.94;4442068;32;34751;-66
2022/04/08 09:07:59;;;;;;;2.15;0.60;;;;;;;14.22;33.93;98711.81;4457287;32;33702;-64
2022/04/08 09:10:33;;;;;;;2.40;0.40;;;;;;;14.44;33.24;98698.19;4454396;32;33984;-64
2022/04/08 09:13:03;;;;;;;3.20;0.52;;;;;;;14.54;33.99;98704.38;4445272;32;33479;-66
2022/04/08 09:15:33;;;;;;;2.22;0.30;;;;;;;14.93;32.24;98703.06;4452489;32;34573;-66
2022/04/08 09:18:14;;;;;;;3.95;0.50;;;;;;;14.84;29.47;98703.00;4439130;32;33114;-67
2022/04/08 09:20:44;;;;;;;2.58;0.40;;;;;;;14.94;30.12;98697.00;4449317;32;33590;-66
2022/04/08 09:23:13;;;;;;;3.17;0.47;;;;;;;14.97;29.91;98715.31;4453273;32;33584;-66
2022/04/08 09:25:42;;;;;;;0.95;0.40;;;;;;;14.33;30.39;98713.72;4455259;32;34454;-65
2022/04/08 09:28:11;;;;;;;1.92;0.47;;;;;;;14.55;30.50;98738.28;4451141;32;34189;-67
2022/04/08 09:30:40;;;;;;;2.58;0.40;;;;;;;15.16;29.83;98746.75;4436344;32;32279;-64
2022/04/08 09:33:13;;;;;;;4.28;0.50;;;;;;;15.12;30.47;98741.53;4428159;32;33760;-67
2022/04/08 09:35:41;;;;;;;1.98;0.37;;;;;;;15.45;30.12;98739.19;4456127;32;32811;-66
2022/04/08 09:38:09;;;;;;;2.15;0.47;;;;;;;15.65;28.77;98749.78;4452637;32;33431;-67
2022/04/08 09:40:38;;;;;;;2.90;0.30;;;;;;;15.87;28.81;98754.31;4427512;32;33722;-64
2022/04/08 09:43:07;;;;;;;2.25;0.50;;;;;;;15.07;28.67;98758.84;4449158;32;34588;-64
2022/04/08 09:45:38;;;;;;;2.87;0.50;;;;;;;15.17;29.02;98754.59;4452691;32;33829;-64
2022/04/08 09:48:07;;;;;;;3.65;0.60;;;;;;;15.64;29.25;98755.88;4455021;32;33297;-63
2022/04/08 09:50:36;;;;;;;4.70;0.55;;;;;;;16.36;29.17;98745.00;4455266;32;34499;-62
2022/04/08 09:53:05;;;;;;;4.82;0.50;;;;;;;15.91;28.34;98745.63;4444532;32;32388;-65
2022/04/08 09:55:35;;;;;;;5.72;0.70;;;;;;;16.04;29.76;98753.56;4458776;32;33707;-65
2022/04/08 09:58:04;;;;;;;2.25;0.43;;;;;;;15.67;28.90;98750.69;4437336;32;34308;-64
2022/04/08 10:00:32;;;;;;;5.12;0.70;;;;;;;15.74;29.02;98749.88;4455961;32;33882;-63
2022/04/08 10:03:00;;;;;;;8.05;0.70;;;;;;;15.76;28.16;98753.41;4453554;32;33750;-63
2022/04/08 10:05:27;;;;;;;6.15;0.70;;;;;;;16.38;28.53;98761.56;4440173;32;33551;-63
2022/04/08 10:07:56;;;;;;;4.93;0.70;;;;;;;16.08;29.49;98757.94;4451976;32;34025;-62
2022/04/08 10:10:40;;;;;;;3.42;0.60;;;;;;;16.39;29.04;98745.03;4451257;32;33409;-64
2022/04/08 10:13:26;;;;;;;4.03;0.55;;;;;;;16.38;27.60;98745.88;4450524;32;33868;-63
2022/04/08 10:16:18;;;;;;;1.70;0.30;;;;;;;16.00;28.90;98749.19;4461419;32;32237;-64
2022/04/08 10:18:47;;;;;;;3.10;0.30;;;;;;;16.24;28.21;98764.13;4442754;32;33612;-63
2022/04/08 10:21:15;;;;;;;2.67;0.40;;;;;;;16.46;29.19;98771.22;4458959;32;33913;-64
2022/04/08 10:23:50;;;;;;;4.62;0.60;;;;;;;17.32;28.09;98767.97;4455643;32;34119;-64
2022/04/08 10:26:24;;;;;;;2.05;0.98;;;;;;;16.76;27.45;98768.69;4455194;32;32325;-64
2022/04/08 10:28:53;;;;;;;4.25;0.52;;;;;;;16.22;28.56;98771.94;4454974;32;33320;-65
2022/04/08 10:31:23;;;;;;;3.55;0.60;;;;;;;16.63;27.89;98773.91;4452257;32;33716;-64
2022/04/08 10:33:57;;;;;;;2.75;0.60;;;;;;;16.01;27.52;98777.03;4450314;32;33995;-64
2022/04/08 10:36:34;;;;;;;1.37;0.30;;;;;;;16.37;28.83;98767.69;4436313;32;33355;-63
2022/04/08 10:39:22;;;;;;;1.80;0.35;;;;;;;16.55;28.03;98772.09;4451799;32;33902;-64
2022/04/08 10:41:53;;;;;;;1.27;0.37;;;;;;;16.35;26.65;98751.13;4452473;32;32452;-63
2022/04/08 10:44:35;;;;;;;0.73;0.40;;;;;;;16.30;28.02;98759.81;4453043;32;34495;-64
2022/04/08 10:47:10;;;;;;;2.28;0.65;;;;;;;16.50;27.84;98766.87;4439914;32;33742;-64
2022/04/08 10:50:04;;;;;;;2.55;0.50;;;;;;;16.50;27.54;98762.50;4447107;32;33829;-64
2022/04/08 10:52:39;;;;;;;3.25;0.43;;;;;;;16.63;28.09;98752.97;4454996;32;34597;-64
2022/04/08 10:55:11;;;;;;;2.95;0.30;;;;;;;16.62;27.53;98755.59;4452516;32;34861;-64
2022/04/08 10:57:40;;;;;;;3.17;0.50;;;;;;;16.63;27.13;98752.97;4452091;32;33775;-63
2022/04/08 11:00:10;;;;;;;2.10;0.45;;;;;;;15.90;29.15;98749.13;4450089;32;33575;-63
2022/04/08 11:02:39;;;;;;;2.75;0.50;;;;;;;16.42;28.42;98753.78;4439816;32;34007;-63
2022/04/08 11:05:11;;;;;;;2.12;0.40;;;;;;;16.01;28.49;98751.81;4455470;32;34631;-63
2022/04/08 11:07:40;;;;;;;1.77;0.52;;;;;;;15.89;29.19;98763.03;4435838;32;33924;-64
2022/04/08 11:10:27;;;;;;;3.15;0.57;;;;;;;16.22;29.06;98761.50;4454013;32;34757;-64
2022/04/08 11:12:54;;;;;;;3.28;0.70;;;;;;;16.43;29.67;98771.19;4438156;32;33898;-64
2022/04/08 11:15:30;;;;;;;2.70;0.80;;;;;;;16.23;29.16;98758.03;4448046;32;34897;-64
2022/04/08 11:18:00;;;;;;;2.20;0.60;;;;;;;16.26;30.18;98758.06;4437895;32;33785;-64
2022/04/08 11:20:28;;;;;;;5.90;1.15;;;;;;;16.31;30.09;98771.12;4435183;32;32518;-64
2022/04/08 11:22:55;;;;;;;7.50;0.68;;;;;;;16.35;30.47;98777.25;4452060;32;34522;-64
2022/04/08 11:25:27;;;;;;;2.12;0.85;;;;;;;16.26;31.34;98786.78;4437702;32;33278;-64
2022/04/08 11:28:09;;;;;;;6.00;0.75;;;;;;;16.06;30.54;98781.44;4439509;32;34640;-64
2022/04/08 11:30:38;;;;;;;2.03;0.60;;;;;;;15.78;31.42;98788.22;4459225;32;33354;-65
2022/04/08 11:33:17;;;;;;;6.32;0.70;;;;;;;16.82;30.97;98779.22;4454518;32;34505;-63
2022/04/08 11:35:46;;;;;;;3.95;0.62;;;;;;;16.52;31.04;98786.03;4448799;32;34659;-63
2022/04/08 11:38:18;;;;;;;2.10;0.70;;;;;;;17.17;31.46;98784.56;4453971;32;34858;-63
2022/04/08 11:40:46;;;;;;;4.35;0.88;;;;;;;16.49;32.79;98784.28;4453780;32;34441;-65